This is the latest recevied weather packets stored in our database for station/object N8TWM-13. If no packets are shown the sender has not sent any weather packets the latest 10 day(s).
| Time | Temp. | Humidity | Pressure | Rain* | Wind** | Luminosity | Snow |
|---|---|---|---|---|---|---|---|
| 1777604666 | 5.56° C | 83% | 1015.1 hPa | 0 mm | - | 0 W/m² | - |
| 1777604363 | 5.56° C | 83% | 1015.3 hPa | 0 mm | - | 0 W/m² | - |
| 1777604062 | 5.56° C | 82% | 1015.3 hPa | 0 mm | - | 0 W/m² | - |
| 1777603760 | 5.56° C | 81% | 1015.5 hPa | 0 mm | - | 0 W/m² | - |
| 1777603456 | 6.11° C | 80% | 1015.4 hPa | 0 mm | - | 0 W/m² | - |
| 1777603152 | 6.11° C | 80% | 1015.2 hPa | 0 mm | - | 0 W/m² | - |
| 1777602848 | 6.11° C | 80% | 1015.2 hPa | 0 mm | - | 0 W/m² | - |
| 1777602543 | 6.11° C | 79% | 1015.3 hPa | 0 mm | - | 0 W/m² | - |
| 1777602239 | 6.67° C | 78% | 1015.4 hPa | 0 mm | - | 0 W/m² | - |
| 1777601935 | 6.67° C | 77% | 1015 hPa | 0 mm | - | 0 W/m² | - |
| 1777601635 | 6.67° C | 77% | 1015.2 hPa | 0 mm | - | 0 W/m² | - |
| 1777601331 | 6.67° C | 77% | 1015.1 hPa | 0 mm | - | 0 W/m² | - |
| 1777601028 | 6.67° C | 77% | 1015.2 hPa | 0 mm | - | 0 W/m² | - |
| 1777600724 | 6.11° C | 77% | 1015 hPa | 0 mm | - | 0 W/m² | - |
| 1777600420 | 6.67° C | 77% | 1015.3 hPa | 0 mm | - | 0 W/m² | - |
| 1777600116 | 6.11° C | 77% | 1014.9 hPa | 0 mm | - | 0 W/m² | - |
| 1777599812 | 6.11° C | 77% | 1015 hPa | 0 mm | - | 0 W/m² | - |
| 1777599508 | 6.11° C | 76% | 1014.8 hPa | 0 mm | - | 0 W/m² | - |
| 1777599205 | 6.67° C | 76% | 1014.9 hPa | 0 mm | - | 0 W/m² | - |
| 1777598901 | 6.67° C | 76% | 1014.7 hPa | 0 mm | - | 0 W/m² | - |
| 1777598599 | 6.67° C | 75% | 1014.4 hPa | 0 mm | - | 0 W/m² | - |
| 1777598295 | 7.22° C | 73% | 1014.6 hPa | 0 mm | - | 0 W/m² | - |
| 1777597993 | 7.22° C | 71% | 1014.7 hPa | 0 mm | - | 0 W/m² | - |
| 1777597691 | 7.22° C | 70% | 1014.7 hPa | 0 mm | - | 0 W/m² | - |
| 1777597388 | 7.78° C | 69% | 1014.8 hPa | 0 mm | - | 0 W/m² | - |
* Rain latest hour (hover to see other rain measurements)
** Current wind speed in m/s (hover to see current wind gust speed)